Time;durP1;ratioP1;P1;durP2;ratioP2;P2;SDS_P1;SDS_P2;PMS_P1;PMS_P2;Temp;Humidity;BMP_temperature;BMP_pressure;BME280_temperature;BME280_humidity;BME280_pressure;Samples;Min_cycle;Max_cycle;Signal;HPM_P1;HPM_P2
2022/04/22 00:01:30;;;;;;;11.02;5.38;;;;;;;;;;5038073;28;20037;-78
2022/04/22 00:03:56;;;;;;;13.98;4.65;;;;;;;;;;5035780;28;20036;-77
2022/04/22 00:06:22;;;;;;;14.48;5.10;;;;;;;;;;5037246;28;20083;-78
2022/04/22 00:08:48;;;;;;;9.20;4.70;;;;;;;;;;5039721;28;20491;-78
2022/04/22 00:11:29;;;;;;;13.48;5.40;;;;;;;;;;5036062;28;20451;-77
2022/04/22 00:13:57;;;;;;;10.85;4.78;;;;;;;;;;5038416;28;20026;-76
2022/04/22 00:16:24;;;;;;;16.33;5.38;;;;;;;;;;5035582;28;20072;-76
2022/04/22 00:18:50;;;;;;;12.88;4.70;;;;;;;;;;5038645;28;20021;-76
2022/04/22 00:21:16;;;;;;;9.15;4.22;;;;;;;;;;5041549;28;20046;-77
2022/04/22 00:23:42;;;;;;;11.85;5.60;;;;;;;;;;5043882;28;20028;-77
2022/04/22 00:26:08;;;;;;;16.00;5.70;;;;;;;;;;5038612;28;20060;-76
2022/04/22 00:28:34;;;;;;;17.73;6.50;;;;;;;;;;5041046;28;20402;-77
2022/04/22 00:31:00;;;;;;;11.85;5.13;;;6.00;99.90;;;;;;5039453;28;20037;-77
2022/04/22 00:33:26;;;;;;;12.00;4.97;;;;;;;;;;5042735;28;20028;-77
2022/04/22 00:35:52;;;;;;;9.60;4.78;;;;;;;;;;5046440;28;20075;-77
2022/04/22 00:38:18;;;;;;;8.73;4.75;;;;;;;;;;5036922;28;20059;-77
2022/04/22 00:40:44;;;;;;;11.73;5.10;;;;;;;;;;5042495;28;20029;-78
2022/04/22 00:43:14;;;;;;;11.38;6.13;;;;;;;;;;5032337;28;20064;-77
2022/04/22 00:45:40;;;;;;;13.20;5.18;;;;;;;;;;5031053;28;20037;-78
2022/04/22 00:48:06;;;;;;;9.30;4.55;;;;;;;;;;5035367;28;20022;-77
2022/04/22 00:50:32;;;;;;;16.52;6.05;;;;;;;;;;5030050;28;20090;-78
2022/04/22 00:52:58;;;;;;;11.73;5.75;;;;;;;;;;5036518;28;20532;-76
2022/04/22 00:55:24;;;;;;;12.70;5.00;;;;;;;;;;5032518;28;20033;-78
2022/04/22 00:57:51;;;;;;;14.38;5.53;;;;;;;;;;5034713;28;20098;-77
2022/04/22 01:00:17;;;;;;;13.20;6.63;;;;;;;;;;5031802;28;20056;-76
2022/04/22 01:02:42;;;;;;;12.40;5.75;;;;;;;;;;5036715;28;20025;-77
2022/04/22 01:10:38;;;;;;;14.13;5.97;;;;;;;;;;5033812;28;20075;-78
2022/04/22 01:13:07;;;;;;;12.65;5.57;;;;;;;;;;5034655;28;21671;-77
2022/04/22 01:15:34;;;;;;;9.38;4.75;;;;;;;;;;5033375;28;20989;-77
2022/04/22 01:18:00;;;;;;;11.80;5.47;;;;;;;;;;5037094;28;20056;-77
2022/04/22 01:20:26;;;;;;;10.43;5.05;;;;;;;;;;5036307;28;20029;-78
2022/04/22 01:22:52;;;;;;;10.00;5.60;;;;;;;;;;5039241;28;20028;-78
2022/04/22 01:25:18;;;;;;;12.23;5.72;;;;;;;;;;5041275;28;20029;-79
2022/04/22 01:27:44;;;;;;;14.15;5.68;;;;;;;;;;5037759;28;20097;-78
2022/04/22 01:30:10;;;;;;;9.57;5.05;;;;;;;;;;5037364;28;20040;-78
2022/04/22 01:32:37;;;;;;;12.38;5.75;;;;;;;;;;5034077;28;20032;-77
2022/04/22 01:35:03;;;;;;;9.65;4.45;;;;;;;;;;5043821;28;20030;-77
2022/04/22 01:37:32;;;;;;;17.50;7.90;;;;;;;;;;5041401;28;20086;-77
2022/04/22 01:39:57;;;;;;;12.85;6.82;;;5.30;99.90;;;;;;5040766;28;20087;-77
2022/04/22 01:42:23;;;;;;;14.23;6.85;;;;;;;;;;5039776;28;20494;-79
2022/04/22 01:44:49;;;;;;;18.05;7.85;;;;;;;;;;5037390;28;20062;-78
2022/04/22 01:47:16;;;;;;;10.15;5.70;;;;;;;;;;5039275;28;20114;-77
2022/04/22 01:49:42;;;;;;;21.98;6.55;;;;;;;;;;5041933;28;20094;-78
2022/04/22 01:52:08;;;;;;;15.40;7.53;;;5.50;99.90;;;;;;5046883;28;20029;-78
2022/04/22 01:54:34;;;;;;;14.77;7.25;;;;;;;;;;5040819;28;20037;-78
2022/04/22 01:57:00;;;;;;;11.68;6.00;;;;;;;;;;5044958;28;20032;-77
2022/04/22 01:59:26;;;;;;;13.13;5.60;;;;;;;;;;5041028;28;20033;-77
2022/04/22 02:01:52;;;;;;;14.77;5.85;;;;;;;;;;5044458;28;20035;-77
2022/04/22 02:04:18;;;;;;;10.68;5.80;;;;;;;;;;5038820;28;20389;-78
2022/04/22 02:06:43;;;;;;;14.52;6.13;;;;;;;;;;5042895;28;20052;-78
2022/04/22 02:09:10;;;;;;;14.55;7.05;;;;;;;;;;5042114;28;20036;-77
2022/04/22 02:11:35;;;;;;;17.55;7.10;;;;;;;;;;5044593;28;20104;-78
2022/04/22 02:14:01;;;;;;;17.63;7.03;;;;;;;;;;5034232;28;20136;-78
2022/04/22 02:16:27;;;;;;;14.75;7.15;;;;;;;;;;5029072;28;20079;-77
2022/04/22 02:18:53;;;;;;;13.00;6.00;;;;;;;;;;5030982;28;20969;-78
2022/04/22 02:21:21;;;;;;;15.75;7.10;;;;;;;;;;5035073;28;20029;-79
2022/04/22 02:23:47;;;;;;;13.93;5.93;;;;;;;;;;5037751;28;20035;-77
2022/04/22 02:26:13;;;;;;;15.50;7.20;;;;;;;;;;5039271;28;20460;-78
2022/04/22 02:28:39;;;;;;;12.93;5.57;;;;;;;;;;5033954;28;20464;-78
2022/04/22 02:31:08;;;;;;;17.08;6.15;;;;;;;;;;5036811;28;20037;-78
2022/04/22 02:33:35;;;;;;;14.35;6.00;;;;;;;;;;5038894;28;20539;-77
2022/04/22 02:36:02;;;;;;;12.52;4.82;;;;;;;;;;5044418;28;20465;-78
2022/04/22 02:38:29;;;;;;;18.83;6.43;;;;;;;;;;5041986;28;20100;-78
2022/04/22 02:46:24;;;;;;;12.75;6.70;;;;;;;;;;5034904;28;20044;-79
2022/04/22 02:48:51;;;;;;;16.67;6.00;;;;;;;;;;5041854;28;20040;-79
2022/04/22 02:51:17;;;;;;;21.95;7.70;;;;;;;;;;5038840;28;20036;-78
2022/04/22 02:53:44;;;;;;;26.63;7.95;;;;;;;;;;5041446;28;20032;-77
2022/04/22 02:56:10;;;;;;;22.40;7.28;;;;;;;;;;5042851;28;20564;-78
2022/04/22 02:58:37;;;;;;;16.27;7.90;;;;;;;;;;5038745;28;20036;-77
2022/04/22 03:01:04;;;;;;;16.88;8.73;;;;;;;;;;5037668;28;20669;-77
2022/04/22 03:03:30;;;;;;;30.40;7.97;;;;;;;;;;5037377;28;20069;-77
2022/04/22 03:05:56;;;;;;;11.82;5.90;;;;;;;;;;5039998;28;20703;-77
2022/04/22 03:08:22;;;;;;;11.55;6.28;;;;;;;;;;5043294;28;20025;-78
2022/04/22 03:10:48;;;;;;;9.55;5.20;;;;;;;;;;5043865;28;20487;-77
2022/04/22 03:13:15;;;;;;;19.27;6.88;;;;;;;;;;5037581;28;20491;-77
2022/04/22 03:15:41;;;;;;;18.52;7.82;;;;;;;;;;5023557;28;20040;-77
2022/04/22 03:18:08;;;;;;;12.20;5.68;;;;;;;;;;5037476;28;20028;-78
2022/04/22 03:20:33;;;;;;;15.57;6.88;;;;;;;;;;5030454;28;20030;-77
2022/04/22 03:23:00;;;;;;;16.00;6.38;;;;;;;;;;5041432;28;20135;-78
2022/04/22 03:25:26;;;;;;;13.48;6.32;;;;;;;;;;5034633;28;20191;-78
2022/04/22 03:27:51;;;;;;;18.73;7.35;;;;;;;;;;5043200;28;20528;-79
2022/04/22 03:30:18;;;;;;;16.80;6.60;;;;;;;;;;5033363;28;20588;-78
2022/04/22 03:32:44;;;;;;;16.00;6.70;;;;;;;;;;5038626;28;20036;-78
2022/04/22 03:35:10;;;;;;;18.58;7.18;;;;;;;;;;5036883;28;20022;-78
2022/04/22 03:37:36;;;;;;;19.65;6.47;;;;;;;;;;5040356;28;20078;-77
2022/04/22 03:40:03;;;;;;;15.95;7.32;;;;;;;;;;5040636;28;20067;-78
2022/04/22 03:42:29;;;;;;;20.38;7.72;;;;;;;;;;5046937;28;20090;-78
2022/04/22 03:44:58;;;;;;;17.17;6.05;;;;;;;;;;5044616;28;20041;-78
2022/04/22 03:47:24;;;;;;;22.75;8.10;;;;;;;;;;5045186;28;20106;-78
2022/04/22 03:49:50;;;;;;;16.17;7.80;;;;;;;;;;5047912;28;20040;-78
2022/04/22 03:52:16;;;;;;;15.02;6.90;;;;;;;;;;5044582;28;20038;-77
2022/04/22 03:54:42;;;;;;;25.75;8.80;;;;;;;;;;5045830;28;20040;-77
2022/04/22 03:59:54;;;;;;;19.85;8.68;;;;;;;;;;5041762;28;20095;-77
2022/04/22 04:02:20;;;;;;;21.77;10.52;;;;;;;;;;5048182;28;20070;-77
2022/04/22 04:04:48;;;;;;;15.02;7.72;;;;;;;;;;5048329;28;20112;-76
2022/04/22 04:07:14;;;;;;;17.15;6.05;;;;;;;;;;5049611;28;20028;-76
2022/04/22 04:17:54;;;;;;;20.67;7.70;;;;;;;;;;5040332;28;20035;-78
2022/04/22 04:23:14;;;;;;;19.98;9.43;;;;;;;;;;5050223;28;20182;-78
2022/04/22 04:25:40;;;;;;;18.67;8.65;;;;;;;;;;5036789;28;20032;-77
2022/04/22 04:28:09;;;;;;;21.67;7.85;;;;;;;;;;5045966;28;20059;-77
2022/04/22 04:30:35;;;;;;;18.17;9.65;;;;;;;;;;5041968;28;20045;-77
2022/04/22 04:33:01;;;;;;;22.00;8.70;;;;;;;;;;5045889;28;20064;-77
2022/04/22 04:35:27;;;;;;;24.45;7.78;;;;;;;;;;5043045;28;20076;-79
2022/04/22 04:37:53;;;;;;;21.20;9.40;;;;;;;;;;5048264;28;20029;-77
2022/04/22 04:40:19;;;;;;;22.98;10.93;;;;;;;;;;5046212;28;20021;-77
2022/04/22 04:42:45;;;;;;;19.73;8.80;;;;;;;;;;5043072;28;20495;-77
2022/04/22 04:45:12;;;;;;;21.67;8.82;;;;;;;;;;5038413;28;20033;-78
2022/04/22 04:47:40;;;;;;;21.75;8.68;;;;;;;;;;5039468;28;20079;-78
2022/04/22 04:50:06;;;;;;;21.75;8.73;;;;;;;;;;5036178;28;20045;-79
2022/04/22 04:52:33;;;;;;;22.35;8.02;;;;;;;;;;5039666;28;20033;-77
2022/04/22 04:54:59;;;;;;;26.70;9.45;;;;;;;;;;5044294;28;20488;-80
2022/04/22 04:57:25;;;;;;;21.48;8.60;;;;;;;;;;5028726;28;20125;-78
2022/04/22 04:59:51;;;;;;;22.80;9.73;;;;;;;;;;5044727;28;20143;-77
2022/04/22 05:02:17;;;;;;;20.00;8.02;;;;;;;;;;5043495;28;20162;-79
2022/04/22 05:04:43;;;;;;;23.75;8.48;;;;;;;;;;5038815;28;20028;-78
2022/04/22 05:07:09;;;;;;;19.23;8.75;;;;;;;;;;5043357;28;20043;-77
2022/04/22 05:09:35;;;;;;;23.50;8.48;;;;;;;;;;5046984;28;20044;-77
2022/04/22 05:12:01;;;;;;;18.60;9.88;;;;;;;;;;5045290;28;20122;-78
2022/04/22 05:14:27;;;;;;;19.08;6.97;;;;;;;;;;5043413;28;20033;-78
2022/04/22 05:16:56;;;;;;;22.23;8.65;;;;;;;;;;5035906;28;20116;-78
2022/04/22 05:19:22;;;;;;;15.80;7.28;;;;;;;;;;5036209;28;20029;-78
2022/04/22 05:21:49;;;;;;;15.98;7.75;;;;;;;;;;5033826;28;20120;-81
2022/04/22 05:24:15;;;;;;;18.05;8.38;;;;;;;;;;5034494;28;20472;-79
2022/04/22 05:26:41;;;;;;;14.50;6.90;;;;;;;;;;5046113;28;20033;-81
2022/04/22 05:32:36;;;;;;;16.13;6.05;;;;;;;;;;5044348;28;20413;-81
2022/04/22 05:34:38;;;;;;;18.67;7.03;;;;;;;;;;5045617;28;20562;-81
2022/04/22 05:37:04;;;;;;;19.08;7.25;;;;;;;;;;5039803;28;20045;-80
2022/04/22 05:39:29;;;;;;;24.70;9.20;;;;;;;;;;5048238;28;20048;-80
2022/04/22 05:41:55;;;;;;;21.92;8.48;;;;;;;;;;5043873;28;20512;-81
2022/04/22 05:44:21;;;;;;;23.98;8.73;;;;;;;;;;5043200;28;20060;-79
2022/04/22 05:46:48;;;;;;;17.45;8.40;;;;;;;;;;5042520;28;20035;-82
2022/04/22 05:49:14;;;;;;;20.17;7.85;;;;;;;;;;5028614;28;20029;-80
2022/04/22 05:51:40;;;;;;;17.50;8.35;;;;;;;;;;5043233;28;20033;-81
2022/04/22 05:54:06;;;;;;;20.30;8.30;;;;;;;;;;5041571;28;20045;-81
2022/04/22 05:56:32;;;;;;;24.02;7.95;;;;;;;;;;5037583;28;20029;-81
2022/04/22 05:58:59;;;;;;;;;;;;;;;;;;5031224;28;20362;-80
2022/04/22 06:01:25;;;;;;;;;;;;;;;;;;5038438;28;20353;-81
2022/04/22 06:03:51;;;;;;;22.63;9.60;;;;;;;;;;5046111;28;19915;-80
2022/04/22 06:06:16;;;;;;;;;;;;;;;;;;5039718;28;20496;-80
2022/04/22 06:11:27;;;;;;;30.30;13.95;;;;;;;;;;5046551;28;20059;-83
2022/04/22 06:13:53;;;;;;;22.77;9.65;;;;;;;;;;5044421;28;20506;-81
2022/04/22 06:16:19;;;;;;;20.40;8.90;;;;;;;;;;5041914;28;20668;-80
2022/04/22 06:18:45;;;;;;;17.77;8.25;;;;;;;;;;5043402;28;20029;-79
2022/04/22 06:21:11;;;;;;;16.88;6.93;;;;;;;;;;5052300;28;20028;-77
2022/04/22 06:23:37;;;;;;;17.40;7.43;;;;;;;;;;5047127;28;20496;-81
2022/04/22 06:26:03;;;;;;;19.92;7.75;;;;;;;;;;5058117;28;20063;-79
2022/04/22 06:28:28;;;;;;;16.33;7.65;;;;;;;;;;5056037;28;20028;-80
2022/04/22 06:30:55;;;;;;;17.25;6.63;;;;;;;;;;5058337;28;20501;-80
2022/04/22 06:33:21;;;;;;;16.85;6.88;;;;;;;;;;5051932;28;20036;-80
2022/04/22 06:35:47;;;;;;;26.55;7.75;;;;;;;;;;5054982;28;20086;-78
2022/04/22 06:38:15;;;;;;;14.90;5.95;;;;;;;;;;5052131;28;20035;-78
2022/04/22 06:46:12;;;;;;;12.32;5.93;;;;;;;;;;5054415;28;20059;-81
2022/04/22 06:48:38;;;;;;;13.43;6.70;;;;;;;;;;5054825;28;20564;-80
2022/04/22 06:51:07;;;;;;;16.50;6.20;;;;;;;;;;5052157;28;20146;-79
2022/04/22 06:53:34;;;;;;;13.32;5.95;;;;;;;;;;5043728;28;20060;-83
2022/04/22 06:56:02;;;;;;;17.80;6.90;;;;;;;;;;5045221;28;20060;-82
2022/04/22 06:58:31;;;;;;;14.05;6.55;;;;;;;;;;5049404;28;20029;-79
2022/04/22 07:00:57;;;;;;;12.05;6.03;;;;;;;;;;5048083;28;20036;-82
2022/04/22 07:03:23;;;;;;;20.95;8.80;;;;;;;;;;5052387;28;20029;-82
2022/04/22 07:05:51;;;;;;;19.20;7.13;;;;;;;;;;5043317;28;20021;-81
2022/04/22 07:08:18;;;;;;;16.58;6.63;;;;;;;;;;5050419;28;20411;-80
2022/04/22 07:10:45;;;;;;;17.23;7.13;;;;;;;;;;5045184;28;20055;-82
2022/04/22 07:13:12;;;;;;;20.02;8.25;;;;;;;;;;5045795;28;20060;-81
2022/04/22 07:15:39;;;;;;;14.63;6.03;;;;;;;;;;5044391;28;20021;-84
2022/04/22 07:18:05;;;;;;;15.80;6.10;;;;;;;;;;5046422;28;20028;-84
2022/04/22 07:20:31;;;;;;;12.38;6.18;;;;;;;;;;5043824;28;20029;-78
2022/04/22 07:22:59;;;;;;;15.30;6.95;;;;;;;;;;5047288;28;20172;-80
2022/04/22 07:25:25;;;;;;;11.32;6.05;;;;;;;;;;5050573;28;20287;-80
2022/04/22 07:27:51;;;;;;;19.27;6.50;;;;;;;;;;5043963;28;20082;-80
2022/04/22 07:30:18;;;;;;;23.60;7.47;;;;;;;;;;5040598;28;20044;-80
2022/04/22 07:32:48;;;;;;;13.50;5.03;;;;;;;;;;5045374;28;20540;-79
2022/04/22 07:35:15;;;;;;;;;;;;;;;;;;5045391;28;20043;-84
2022/04/22 07:37:41;;;;;;;9.63;5.25;;;;;;;;;;5046972;28;19909;-79
2022/04/22 07:40:08;;;;;;;10.57;5.03;;;;;;;;;;5043339;28;20033;-79
2022/04/22 07:42:35;;;;;;;12.55;5.63;;;;;;;;;;5048872;28;20345;-79
2022/04/22 07:47:49;;;;;;;11.43;5.57;;;;;;;;;;5046031;28;20056;-80
2022/04/22 07:50:15;;;;;;;14.73;6.50;;;;;;;;;;5037268;28;20045;-79
2022/04/22 07:52:48;;;;;;;13.60;5.60;;;;;;;;;;5051144;28;20018;-80
2022/04/22 07:55:14;;;;;;;14.05;5.68;;;;;;;;;;5050625;28;20032;-81
2022/04/22 07:57:41;;;;;;;14.20;6.22;;;;;;;;;;5046678;28;20457;-80
2022/04/22 08:00:10;;;;;;;14.00;6.70;;;;;;;;;;5042857;28;20371;-80
2022/04/22 08:02:40;;;;;;;17.17;5.85;;;;;;;;;;5044949;28;20064;-82
2022/04/22 08:05:07;;;;;;;13.85;5.85;;;;;;;;;;5040915;28;20040;-81
2022/04/22 08:07:33;;;;;;;11.88;5.40;;;;;;;;;;5033741;28;20052;-81
2022/04/22 08:09:59;;;;;;;11.50;5.53;;;;;;;;;;5036923;28;20052;-81
2022/04/22 08:12:25;;;;;;;11.63;5.72;;;;;;;;;;5044143;28;20029;-79
2022/04/22 08:14:51;;;;;;;12.27;5.75;;;13.30;99.90;;;;;;5039060;28;20112;-80
2022/04/22 08:17:17;;;;;;;13.63;6.78;;;;;;;;;;5044043;28;20029;-84
2022/04/22 08:19:46;;;;;;;14.52;5.75;;;;;;;;;;5045840;28;20078;-80
2022/04/22 08:22:12;;;;;;;13.43;6.22;;;;;;;;;;5048346;28;20063;-82
2022/04/22 08:24:37;;;;;;;12.40;5.15;;;12.60;99.90;;;;;;5043411;28;20497;-79
2022/04/22 08:27:04;;;;;;;11.35;5.85;;;;;;;;;;5049903;28;20139;-80
2022/04/22 08:29:30;;;;;;;10.45;5.18;;;;;;;;;;5050381;28;20128;-79
2022/04/22 08:31:56;;;;;;;11.20;5.45;;;;;;;;;;5053601;28;20082;-80
2022/04/22 08:34:22;;;;;;;12.23;5.63;;;;;;;;;;5047645;28;20025;-79
2022/04/22 08:36:47;;;;;;;12.15;5.57;;;;;;;;;;5050296;28;20025;-79
2022/04/22 08:39:14;;;;;;;13.13;5.82;;;;;;;;;;5052367;28;20033;-79
2022/04/22 08:41:43;;;;;;;15.55;7.18;;;;;;;;;;5047019;28;20382;-78
2022/04/22 08:44:12;;;;;;;15.45;7.10;;;;;;;;;;5047836;28;20062;-79
2022/04/22 08:52:10;;;;;;;13.15;5.85;;;;;;;;;;5048354;28;20098;-79
2022/04/22 08:54:36;;;;;;;9.20;4.53;;;;;;;;;;5049771;28;20103;-79
2022/04/22 08:57:03;;;;;;;11.15;5.68;;;21.90;68.90;;;;;;5053159;28;20021;-79
2022/04/22 08:59:29;;;;;;;10.52;6.07;;;;;;;;;;5053249;28;20056;-80
2022/04/22 09:01:58;;;;;;;14.57;5.55;;;;;;;;;;5053430;28;20124;-78
2022/04/22 09:04:26;;;;;;;11.30;4.88;;;;;;;;;;5051461;28;20413;-79
2022/04/22 09:06:52;;;;;;;11.55;5.40;;;;;;;;;;5050011;28;22736;-78
2022/04/22 09:09:19;;;;;;;13.75;5.28;;;;;;;;;;5053074;28;20028;-78
2022/04/22 09:11:45;;;;;;;11.65;6.57;;;;;;;;;;5047714;28;20045;-78
2022/04/22 09:14:15;;;;;;;9.90;5.57;;;;;;;;;;5052192;28;20036;-79
2022/04/22 09:16:41;;;;;;;13.82;5.20;;;;;;;;;;5051610;28;20037;-79
2022/04/22 09:19:08;;;;;;;16.40;7.35;;;;;;;;;;5046576;28;20021;-77
2022/04/22 09:21:34;;;;;;;11.93;6.45;;;;;;;;;;5050194;28;20381;-78
2022/04/22 09:24:13;;;;;;;10.77;5.47;;;;;;;;;;5043404;28;20040;-77
2022/04/22 09:26:39;;;;;;;9.93;5.05;;;;;;;;;;5042409;28;20033;-78
2022/04/22 09:29:06;;;;;;;10.85;5.40;;;;;;;;;;5050006;28;20461;-83
2022/04/22 09:31:48;;;;;;;12.55;6.53;;;;;;;;;;5056450;28;20039;-80
2022/04/22 09:34:14;;;;;;;15.75;6.38;;;;;;;;;;5060380;28;20390;-79
2022/04/22 09:45:09;;;;;;;10.23;5.35;;;;;;;;;;5049593;28;20163;-79
2022/04/22 09:47:36;;;;;;;18.87;7.17;;;;;;;;;;5045552;28;20025;-79
2022/04/22 09:50:05;;;;;;;12.45;6.07;;;;;;;;;;5053269;28;20045;-80
2022/04/22 09:52:34;;;;;;;11.25;6.30;;;;;;;;;;5059691;28;20040;-80
2022/04/22 09:55:01;;;;;;;11.10;6.35;;;;;;;;;;5047547;28;20477;-80
2022/04/22 09:57:28;;;;;;;11.25;5.55;;;;;;;;;;5053946;28;20543;-78
2022/04/22 09:59:54;;;;;;;9.82;5.70;;;;;;;;;;5046804;28;20028;-78
2022/04/22 10:02:21;;;;;;;7.93;4.70;;;;;;;;;;5048668;28;20035;-78
2022/04/22 10:04:48;;;;;;;14.10;5.80;;;;;;;;;;5049020;28;20488;-79
2022/04/22 10:07:16;;;;;;;15.38;7.32;;;;;;;;;;5040591;28;20025;-79
2022/04/22 10:09:43;;;;;;;11.38;5.78;;;16.60;96.60;;;;;;5036262;28;20655;-79
2022/04/22 10:12:11;;;;;;;11.85;5.57;;;;;;;;;;5053651;28;20112;-78
2022/04/22 10:14:38;;;;;;;10.48;6.20;;;;;;;;;;5048170;28;20578;-78
2022/04/22 10:17:05;;;;;;;17.70;6.28;;;;;;;;;;5046617;28;20029;-78
2022/04/22 10:19:35;;;;;;;12.35;5.95;;;;;;;;;;5045660;28;20048;-77
2022/04/22 10:22:04;;;;;;;12.27;5.30;;;;;;;;;;5045827;28;20024;-77
2022/04/22 10:24:34;;;;;;;9.75;5.38;;;;;;;;;;5043896;28;20037;-78
2022/04/22 10:27:02;;;;;;;11.88;6.15;;;;;;;;;;5045824;28;20498;-77
2022/04/22 10:29:29;;;;;;;8.57;4.55;;;;;;;;;;5042791;28;20045;-77
2022/04/22 10:31:56;;;;;;;11.35;5.03;;;;;;;;;;5034651;28;20044;-78
2022/04/22 10:34:39;;;;;;;13.75;6.40;;;17.10;80.30;;;;;;5052234;28;20396;-77
2022/04/22 10:37:15;;;;;;;11.88;5.68;;;17.30;79.00;;;;;;5046041;28;20705;-78
2022/04/22 10:39:41;;;;;;;9.95;5.60;;;;;;;;;;5047755;28;20024;-78
2022/04/22 10:42:16;;;;;;;12.57;4.72;;;17.00;78.90;;;;;;5036515;28;20295;-78
2022/04/22 10:47:57;;;;;;;11.43;5.28;;;;;;;;;;5042980;28;20043;-78
2022/04/22 10:50:34;;;;;;;11.43;4.53;;;;;;;;;;5037775;28;20041;-77
2022/04/22 10:53:02;;;;;;;8.23;4.75;;;;;;;;;;5041728;28;20401;-78
2022/04/22 10:55:31;;;;;;;9.65;5.30;;;;;;;;;;5049015;28;20492;-78
2022/04/22 10:58:13;;;;;;;11.25;5.63;;;;;;;;;;5046529;28;20017;-78
2022/04/22 11:00:41;;;;;;;10.52;4.43;;;;;;;;;;5035473;28;20419;-78
2022/04/22 11:03:15;;;;;;;10.57;4.68;;;;;;;;;;5046395;28;20021;-77
2022/04/22 11:05:48;;;;;;;8.85;4.65;;;;;;;;;;5046845;28;20021;-78
2022/04/22 11:08:26;;;;;;;9.68;5.25;;;;;;;;;;5039443;28;20030;-78
2022/04/22 11:10:52;;;;;;;10.13;5.38;;;;;;;;;;5048730;28;20029;-79
2022/04/22 11:13:34;;;;;;;6.68;4.18;;;;;;;;;;5050680;28;20043;-79
2022/04/22 11:16:06;;;;;;;7.60;4.47;;;;;;;;;;5043428;28;20416;-78
2022/04/22 11:18:33;;;;;;;10.82;4.95;;;18.80;73.60;;;;;;5050895;28;20029;-79
2022/04/22 11:21:04;;;;;;;8.98;3.72;;;;;;;;;;5054283;28;20033;-78
2022/04/22 11:23:37;;;;;;;9.68;4.03;;;;;;;;;;5050500;28;20036;-78
2022/04/22 11:26:03;;;;;;;9.48;4.30;;;;;;;;;;5055237;28;20024;-79
2022/04/22 11:28:33;;;;;;;10.57;3.85;;;;;;;;;;5053364;28;20534;-78
2022/04/22 11:31:02;;;;;;;8.02;3.45;;;;;;;;;;5044594;28;20346;-78
2022/04/22 11:33:32;;;;;;;6.82;3.80;;;;;;;;;;5052814;28;20112;-78
2022/04/22 11:35:58;;;;;;;7.22;3.83;;;;;;;;;;5042028;28;20029;-78
2022/04/22 11:38:24;;;;;;;7.38;4.03;;;;;;;;;;5043868;28;20056;-78
2022/04/22 11:40:51;;;;;;;8.80;4.63;;;;;;;;;;5036374;28;20025;-77
2022/04/22 11:43:21;;;;;;;8.10;3.70;;;;;;;;;;5044374;28;20603;-77
2022/04/22 11:45:50;;;;;;;10.18;5.05;;;;;;;;;;5046250;28;20040;-77
2022/04/22 11:48:23;;;;;;;10.90;4.63;;;;;;;;;;5037319;28;20036;-77
2022/04/22 11:50:49;;;;;;;9.65;4.63;;;;;;;;;;5044980;28;20037;-77
2022/04/22 11:53:17;;;;;;;8.88;3.53;;;18.10;68.40;;;;;;5048028;28;20064;-78
2022/04/22 11:55:44;;;;;;;10.18;5.22;;;;;;;;;;5043680;28;20509;-79
2022/04/22 11:58:10;;;;;;;6.53;3.42;;;;;;;;;;5045806;28;20041;-79
2022/04/22 12:06:13;;;;;;;10.32;4.10;;;;;;;;;;5054638;28;20113;-78
2022/04/22 12:09:00;;;;;;;9.30;4.18;;;;;;;;;;5047879;28;20033;-78
2022/04/22 12:11:26;;;;;;;9.25;3.65;;;;;;;;;;5057787;28;20057;-82
2022/04/22 12:13:53;;;;;;;10.20;4.07;;;;;;;;;;5052245;28;20029;-78
2022/04/22 12:16:27;;;;;;;7.00;3.58;;;;;;;;;;5054790;28;20043;-79
2022/04/22 12:18:54;;;;;;;6.07;3.90;;;;;;;;;;5056836;28;20025;-79
2022/04/22 12:21:21;;;;;;;7.80;4.20;;;19.70;69.50;;;;;;5054353;28;20624;-79
2022/04/22 12:23:49;;;;;;;8.20;4.40;;;19.80;71.20;;;;;;5051968;28;20047;-79
2022/04/22 12:26:19;;;;;;;8.85;3.95;;;;;;;;;;5056180;28;20021;-78
2022/04/22 12:29:02;;;;;;;6.63;3.75;;;;;;;;;;5059967;28;20032;-79
2022/04/22 12:31:30;;;;;;;7.80;3.55;;;19.30;68.60;;;;;;5054845;28;20039;-79
2022/04/22 12:34:00;;;;;;;6.28;3.53;;;19.80;67.10;;;;;;5050109;28;20157;-78
2022/04/22 12:36:26;;;;;;;5.88;3.40;;;;;;;;;;5053455;28;20043;-77
2022/04/22 12:38:52;;;;;;;6.13;3.38;;;;;;;;;;5047171;28;20091;-78
2022/04/22 12:41:28;;;;;;;6.68;4.10;;;;;;;;;;5058046;28;20052;-79
2022/04/22 12:43:55;;;;;;;8.73;3.50;;;;;;;;;;5050292;28;20032;-79
2022/04/22 12:52:09;;;;;;;7.07;3.72;;;;;;;;;;5051124;28;20067;-78
2022/04/22 12:54:35;;;;;;;6.43;3.60;;;;;;;;;;5053195;28;20026;-79
2022/04/22 12:57:01;;;;;;;8.75;4.03;;;;;;;;;;5048416;28;20431;-78
2022/04/22 12:59:47;;;;;;;6.47;3.05;;;;;;;;;;5049919;28;20032;-78
2022/04/22 13:02:16;;;;;;;8.70;3.80;;;;;;;;;;5047446;28;20021;-78
2022/04/22 13:04:51;;;;;;;5.80;3.25;;;;;;;;;;5051036;28;20455;-78
2022/04/22 13:07:18;;;;;;;5.43;2.67;;;19.30;83.20;;;;;;5048942;28;20393;-78
2022/04/22 13:09:44;;;;;;;8.27;3.80;;;;;;;;;;5053741;28;20462;-78
2022/04/22 13:12:10;;;;;;;5.50;3.33;;;;;;;;;;5055702;28;20127;-78
2022/04/22 13:14:36;;;;;;;7.38;3.10;;;;;;;;;;5047278;28;20124;-79
2022/04/22 13:17:03;;;;;;;6.55;3.03;;;;;;;;;;5046134;28;20124;-78
2022/04/22 13:19:29;;;;;;;5.65;2.78;;;;;;;;;;5054661;28;20033;-80
2022/04/22 13:21:55;;;;;;;11.00;3.72;;;;;;;;;;5051229;28;20025;-78
2022/04/22 13:24:21;;;;;;;5.70;2.80;;;;;;;;;;5055806;28;20082;-79
2022/04/22 13:26:47;;;;;;;5.97;3.47;;;;;;;;;;5058868;28;20123;-78
2022/04/22 13:29:13;;;;;;;6.57;3.30;;;;;;;;;;5053052;28;20049;-78
2022/04/22 13:31:39;;;;;;;4.20;3.03;;;;;;;;;;5050938;28;20492;-80
2022/04/22 13:34:05;;;;;;;4.32;2.38;;;;;;;;;;5053379;28;20499;-79
2022/04/22 13:36:32;;;;;;;6.20;3.50;;;;;;;;;;5049658;28;20043;-77
2022/04/22 13:38:57;;;;;;;4.82;2.67;;;;;;;;;;5051180;28;20048;-78
2022/04/22 13:41:23;;;;;;;4.63;2.72;;;;;;;;;;5045796;28;20025;-78
2022/04/22 13:43:50;;;;;;;6.85;2.90;;;;;;;;;;5050874;28;20093;-79
2022/04/22 13:54:30;;;;;;;5.20;2.78;;;;;;;;;;5053329;28;20048;-78
2022/04/22 13:56:56;;;;;;;5.13;2.75;;;;;;;;;;5048107;28;20021;-78
2022/04/22 13:59:22;;;;;;;6.70;2.45;;;;;;;;;;5051745;28;20029;-78
2022/04/22 14:01:48;;;;;;;5.80;2.40;;;;;;;;;;5052590;28;20032;-77
2022/04/22 14:04:14;;;;;;;4.88;2.28;;;;;;;;;;5058730;28;20103;-78
2022/04/22 14:06:40;;;;;;;6.50;2.00;;;;;;;;;;5048981;28;20030;-78
2022/04/22 14:09:06;;;;;;;6.72;2.83;;;;;;;;;;5048647;28;20143;-78
2022/04/22 14:11:32;;;;;;;4.57;2.65;;;19.50;72.40;;;;;;5053802;28;20040;-78
2022/04/22 14:13:58;;;;;;;6.70;3.00;;;;;;;;;;5053091;28;20029;-78
2022/04/22 14:16:25;;;;;;;5.68;2.78;;;20.30;64.60;;;;;;5048128;28;20032;-78
2022/04/22 14:18:51;;;;;;;5.80;3.13;;;;;;;;;;5052780;28;20021;-78
2022/04/22 14:21:17;;;;;;;5.90;2.95;;;;;;;;;;5052541;28;20032;-77
2022/04/22 14:23:43;;;;;;;6.45;2.78;;;;;;;;;;5048080;28;20135;-78
2022/04/22 14:26:09;;;;;;;5.72;3.53;;;;;;;;;;5046389;28;20081;-78
2022/04/22 14:28:35;;;;;;;6.93;3.20;;;;;;;;;;5048793;28;20041;-78
2022/04/22 14:31:01;;;;;;;7.35;2.10;;;;;;;;;;5051306;28;20048;-78
2022/04/22 14:33:27;;;;;;;6.18;2.78;;;;;;;;;;5048380;28;20248;-79
2022/04/22 14:35:53;;;;;;;5.97;2.38;;;;;;;;;;5026613;28;20477;-78
2022/04/22 14:38:19;;;;;;;4.72;2.58;;;;;;;;;;5040660;28;20029;-78
2022/04/22 14:40:45;;;;;;;3.78;2.15;;;;;;;;;;5043558;28;20365;-78
2022/04/22 14:43:11;;;;;;;7.13;2.42;;;;;;;;;;5044413;28;20048;-78
2022/04/22 14:45:37;;;;;;;3.60;2.38;;;;;;;;;;5045140;28;20041;-79
2022/04/22 14:48:04;;;;;;;7.40;2.30;;;;;;;;;;5040561;28;20480;-78
2022/04/22 14:50:33;;;;;;;8.48;2.67;;;;;;;;;;5039016;28;20048;-78
2022/04/22 14:52:59;;;;;;;8.32;2.97;;;;;;;;;;5042120;28;20432;-78
2022/04/22 14:55:25;;;;;;;3.83;2.05;;;;;;;;;;5040143;28;20035;-78
2022/04/22 14:57:51;;;;;;;5.00;2.72;;;;;;;;;;5040677;28;20084;-78
2022/04/22 15:00:17;;;;;;;5.20;2.90;;;;;;;;;;5043798;28;20052;-79
2022/04/22 15:02:43;;;;;;;5.85;2.70;;;;;;;;;;5042607;28;20040;-78
2022/04/22 15:05:09;;;;;;;4.97;2.75;;;;;;;;;;5044030;28;20021;-78
2022/04/22 15:07:36;;;;;;;4.32;2.80;;;;;;;;;;5046499;28;20052;-80
2022/04/22 15:10:03;;;;;;;4.25;2.40;;;;;;;;;;5043766;28;20033;-79
2022/04/22 15:12:29;;;;;;;6.85;2.55;;;;;;;;;;5042737;28;20029;-78
2022/04/22 15:14:56;;;;;;;4.68;2.40;;;;;;;;;;5048366;28;20510;-78
2022/04/22 15:25:37;;;;;;;5.25;2.70;;;;;;;;;;5043686;28;20044;-78
2022/04/22 15:28:03;;;;;;;5.57;3.38;;;;;;;;;;5041386;28;20477;-78
2022/04/22 15:30:48;;;;;;;5.60;2.90;;;;;;;;;;5046027;28;20053;-78
2022/04/22 15:33:13;;;;;;;9.40;3.28;;;;;;;;;;5042455;28;20029;-80
2022/04/22 15:35:40;;;;;;;5.07;2.17;;;;;;;;;;5037073;28;20165;-80
2022/04/22 15:38:06;;;;;;;4.65;2.58;;;;;;;;;;5036219;28;20013;-80
2022/04/22 15:40:31;;;;;;;3.55;2.35;;;;;;;;;;5050569;28;20043;-80
2022/04/22 15:42:58;;;;;;;5.32;2.13;;;;;;;;;;5045255;28;20503;-79
2022/04/22 15:45:24;;;;;;;4.90;2.90;;;;;;;;;;5041549;28;20405;-79
2022/04/22 15:47:50;;;;;;;4.50;2.60;;;;;;;;;;5035772;28;20087;-79
2022/04/22 15:50:16;;;;;;;5.18;2.33;;;;;;;;;;5039585;28;20088;-79
2022/04/22 15:52:42;;;;;;;6.85;2.72;;;;;;;;;;5045730;28;20029;-77